Time;durP1;ratioP1;P1;durP2;ratioP2;P2;SDS_P1;SDS_P2;PMS_P1;PMS_P2;Temp;Humidity;BMP_temperature;BMP_pressure;BME280_temperature;BME280_humidity;BME280_pressure;Samples;Min_cycle;Max_cycle;Signal;HPM_P1;HPM_P2
2022/11/18 00:00:12;;;;;;;2.07;1.97;;;0.70;99.90;;;;;;5055138;28;20237;-90
2022/11/18 00:02:38;;;;;;;3.10;2.50;;;;;;;;;;5055077;28;20237;-90
2022/11/18 00:05:04;;;;;;;5.93;3.63;;;;;;;;;;5055126;28;20626;-91
2022/11/18 00:07:30;;;;;;;3.23;3.03;;;;;;;;;;5054252;28;20188;-89
2022/11/18 00:09:56;;;;;;;2.97;2.77;;;;;;;;;;5055345;28;20212;-89
2022/11/18 00:15:07;;;;;;;2.27;2.17;;;-0.80;99.90;;;;;;5055512;28;20222;-89
2022/11/18 00:17:33;;;;;;;4.73;2.70;;;;;;;;;;5040209;28;20191;-89
2022/11/18 00:19:58;;;;;;;11.87;3.23;;;-0.90;99.90;;;;;;5054733;28;20647;-89
2022/11/18 00:22:24;;;;;;;4.07;2.13;;;;;;;;;;5021406;28;20249;-90
2022/11/18 00:24:50;;;;;;;3.13;2.93;;;-0.90;99.90;;;;;;5037755;28;20197;-89
2022/11/18 00:27:15;;;;;;;5.43;3.40;;;0.70;99.90;;;;;;5037853;28;20732;-90
2022/11/18 00:29:41;;;;;;;4.87;3.27;;;;;;;;;;5021385;28;20205;-90
2022/11/18 00:32:07;;;;;;;2.50;2.30;;;;;;;;;;5055144;28;20282;-89
2022/11/18 00:34:37;;;;;;;6.90;3.63;;;-0.90;99.90;;;;;;5054881;28;20222;-90
2022/11/18 00:37:05;;;;;;;3.43;2.07;;;;;;;;;;5056755;28;20654;-90
2022/11/18 00:39:30;;;;;;;6.00;3.83;;;-1.00;99.90;;;;;;5038019;28;20183;-90
2022/11/18 00:44:40;;;;;;;1.33;1.30;;;-1.10;99.90;;;;;;5054291;28;20584;-90
2022/11/18 00:47:05;;;;;;;5.13;3.10;;;0.70;99.90;;;;;;5038267;28;20281;-89
2022/11/18 00:49:31;;;;;;;2.33;1.90;;;0.80;99.90;;;;;;5038180;28;20216;-89
2022/11/18 00:51:57;;;;;;;3.70;2.60;;;-1.20;99.90;;;;;;5021214;28;20188;-89
2022/11/18 00:54:23;;;;;;;2.97;2.77;;;-0.10;99.90;;;;;;5055124;28;20208;-90
2022/11/18 00:56:49;;;;;;;4.10;2.87;;;;;;;;;;5021085;28;20193;-89
2022/11/18 00:59:15;;;;;;;2.10;1.83;;;;;;;;;;5037739;28;20183;-88
2022/11/18 01:01:41;;;;;;;3.77;2.53;;;-1.00;99.90;;;;;;5053766;28;20274;-90
2022/11/18 01:04:07;;;;;;;2.83;1.87;;;;;;;;;;5020638;28;20186;-91
2022/11/18 01:06:32;;;;;;;2.60;1.90;;;-0.90;99.90;;;;;;5053211;28;20194;-91
2022/11/18 01:08:58;;;;;;;3.17;2.90;;;-0.90;99.90;;;;;;5053951;28;20183;-90
2022/11/18 01:14:09;;;;;;;2.73;2.00;;;-0.90;99.90;;;;;;5054499;28;20227;-90
2022/11/18 01:16:34;;;;;;;2.83;1.90;;;1.70;99.90;;;;;;5052653;28;20184;-90
2022/11/18 01:19:00;;;;;;;5.40;3.03;;;1.20;99.90;;;;;;5019947;28;20267;-89
2022/11/18 01:21:27;;;;;;;29.03;5.93;;;1.50;99.90;;;;;;5053436;28;20556;-90
2022/11/18 01:23:53;;;;;;;9.87;3.07;;;1.90;99.90;;;;;;5052298;28;20190;-89
2022/11/18 01:26:19;;;;;;;4.03;3.47;;;-0.80;99.90;;;;;;5053854;28;20230;-89
2022/11/18 01:28:45;;;;;;;3.27;2.83;;;;;;;;;;5035521;28;20669;-88
2022/11/18 01:31:13;;;;;;;1.87;1.77;;;-0.80;99.90;;;;;;5053009;28;20279;-89
2022/11/18 01:33:39;;;;;;;2.73;2.23;;;;;;;;;;5053426;28;20244;-88
2022/11/18 01:36:18;;;;;;;2.47;2.27;;;-0.80;99.90;;;;;;5054572;28;20630;-90
2022/11/18 01:38:44;;;;;;;3.17;2.43;;;-0.80;99.90;;;;;;5053116;28;20187;-90
2022/11/18 01:41:10;;;;;;;2.20;2.00;;;-0.80;99.90;;;;;;5052518;28;20269;-90
2022/11/18 01:44:09;;;;;;;8.27;3.33;;;-0.80;99.90;;;;;;5052985;28;20216;-91
2022/11/18 01:46:34;;;;;;;12.70;6.80;;;-0.90;99.90;;;;;;5050984;28;20270;-91
2022/11/18 01:49:09;;;;;;;3.53;2.53;;;1.00;99.90;;;;;;5052974;28;20186;-90
2022/11/18 01:51:45;;;;;;;4.93;2.77;;;-0.80;99.90;;;;;;5052684;28;20208;-90
2022/11/18 01:54:23;;;;;;;2.03;1.93;;;-0.90;99.90;;;;;;5054853;28;20176;-90
2022/11/18 01:56:53;;;;;;;2.63;2.43;;;-0.90;99.90;;;;;;5052315;28;20618;-91
2022/11/18 01:59:23;;;;;;;7.23;4.13;;;1.20;99.90;;;;;;5052324;28;20268;-91
2022/11/18 02:01:49;;;;;;;3.90;3.43;;;;;;;;;;5053000;28;20182;-90
2022/11/18 02:04:15;;;;;;;2.70;2.07;;;;;;;;;;5053490;28;20188;-91
2022/11/18 02:06:44;;;;;;;6.43;3.83;;;-0.80;99.90;;;;;;5052802;28;20184;-90
2022/11/18 02:09:10;;;;;;;4.47;3.53;;;;;;;;;;5053782;28;20181;-91
2022/11/18 02:12:09;;;;;;;2.70;1.83;;;;;;;;;;5036152;28;20355;-89
2022/11/18 02:14:37;;;;;;;4.77;4.13;;;-0.70;99.90;;;;;;5049252;28;20194;-90
2022/11/18 02:17:26;;;;;;;2.53;2.33;;;-0.80;99.90;;;;;;5052092;28;20626;-90
2022/11/18 02:20:05;;;;;;;3.40;3.13;;;-0.80;99.90;;;;;;5052504;28;20183;-89
2022/11/18 02:23:04;;;;;;;3.10;2.80;;;-0.80;99.90;;;;;;5055411;28;20177;-91
2022/11/18 02:26:07;;;;;;;2.97;2.77;;;-0.80;99.90;;;;;;5056651;28;20247;-90
2022/11/18 02:28:33;;;;;;;2.07;1.97;;;;;;;;;;5057083;28;20233;-90
2022/11/18 02:31:13;;;;;;;2.10;2.00;;;-1.00;99.90;;;;;;5056116;28;20219;-90
2022/11/18 02:34:03;;;;;;;2.30;2.20;;;-1.00;99.90;;;;;;5057667;28;20672;-90
2022/11/18 02:36:45;;;;;;;3.40;2.63;;;-1.20;99.90;;;;;;5057893;28;20158;-90
2022/11/18 02:39:20;;;;;;;4.17;2.83;;;-1.00;99.90;;;;;;5057788;28;20164;-90
2022/11/18 02:41:49;;;;;;;5.67;2.33;;;-1.00;99.90;;;;;;5056372;28;20192;-90
2022/11/18 02:44:17;;;;;;;1.77;1.67;;;1.20;99.90;;;;;;5056115;28;20225;-90
2022/11/18 02:46:50;;;;;;;3.37;2.27;;;-1.00;99.90;;;;;;5055800;28;20180;-90
2022/11/18 02:49:27;;;;;;;2.43;2.23;;;-0.90;99.90;;;;;;5056326;28;20181;-91
2022/11/18 02:51:55;;;;;;;2.17;2.07;;;-0.90;99.90;;;;;;5057341;28;20221;-92
2022/11/18 02:54:23;;;;;;;2.23;2.07;;;-0.90;99.90;;;;;;5056556;28;20211;-90
2022/11/18 02:56:51;;;;;;;1.97;1.87;;;-0.90;99.90;;;;;;5039136;28;20261;-91
2022/11/18 02:59:18;;;;;;;4.23;2.80;;;-0.90;99.90;;;;;;5054994;28;20269;-91
2022/11/18 03:01:44;;;;;;;2.77;2.33;;;;;;;;;;5055534;28;20192;-91
2022/11/18 03:04:11;;;;;;;1.87;1.77;;;-0.80;99.90;;;;;;5038668;28;20633;-91
2022/11/18 03:06:40;;;;;;;1.87;1.77;;;-0.80;99.90;;;;;;5039007;28;20209;-90
2022/11/18 03:09:08;;;;;;;1.87;1.77;;;-1.00;99.90;;;;;;5057772;28;20247;-92
2022/11/18 03:11:45;;;;;;;4.17;2.43;;;-0.80;99.90;;;;;;5055899;28;20217;-91
2022/11/18 03:14:11;;;;;;;1.77;1.63;;;;;;;;;;5055879;28;20316;-89
2022/11/18 03:16:43;;;;;;;2.03;1.83;;;-0.80;99.90;;;;;;5056870;28;20256;-89
2022/11/18 03:19:33;;;;;;;2.77;2.57;;;-0.70;99.90;;;;;;5055878;28;20183;-91
2022/11/18 03:21:59;;;;;;;1.90;1.80;;;;;;;;;;5055475;28;20612;-92
2022/11/18 03:24:31;;;;;;;3.33;3.13;;;-0.80;99.90;;;;;;5057638;28;20218;-90
2022/11/18 03:27:16;;;;;;;3.87;2.10;;;-0.80;99.90;;;;;;5070654;28;20193;-91
2022/11/18 03:29:51;;;;;;;3.43;1.73;;;-0.70;99.90;;;;;;5070155;28;20213;-90
2022/11/18 03:32:22;;;;;;;3.00;2.77;;;-0.90;99.90;;;;;;5070130;28;20182;-91
2022/11/18 03:34:53;;;;;;;3.73;2.83;;;1.60;99.90;;;;;;5057835;28;20171;-90
2022/11/18 03:37:20;;;;;;;1.60;1.50;;;1.60;99.90;;;;;;5056390;28;20165;-91
2022/11/18 03:39:53;;;;;;;5.30;3.23;;;-0.80;99.90;;;;;;5056903;28;20329;-92
2022/11/18 03:42:30;;;;;;;2.77;2.57;;;-0.70;99.90;;;;;;5057543;28;20627;-92
2022/11/18 03:45:30;;;;;;;3.57;2.57;;;-0.70;99.90;;;;;;5059707;28;20282;-92
2022/11/18 03:48:09;;;;;;;2.63;1.97;;;-0.70;99.90;;;;;;5060103;28;20190;-92
2022/11/18 03:50:52;;;;;;;7.73;2.67;;;1.80;99.90;;;;;;5066510;28;20608;-92
2022/11/18 03:53:19;;;;;;;2.47;2.27;;;-0.80;99.90;;;;;;5080010;28;20208;-90
2022/11/18 03:55:51;;;;;;;2.93;1.80;;;-0.70;99.90;;;;;;5079526;28;20174;-92
2022/11/18 03:58:26;;;;;;;3.40;2.63;;;-0.90;99.90;;;;;;5080201;28;20199;-89
2022/11/18 04:01:00;;;;;;;2.17;2.03;;;-0.80;99.90;;;;;;5079421;28;20215;-91
2022/11/18 04:03:26;;;;;;;3.23;2.43;;;-0.80;99.90;;;;;;5079385;28;20164;-91
2022/11/18 04:05:57;;;;;;;1.80;1.70;;;-0.80;99.90;;;;;;5079405;28;20158;-91
2022/11/18 04:08:32;;;;;;;2.50;2.30;;;0.80;99.90;;;;;;5080153;28;20155;-90
2022/11/18 04:11:06;;;;;;;2.23;1.53;;;-0.80;99.90;;;;;;5079308;28;20204;-92
2022/11/18 04:13:35;;;;;;;3.50;3.07;;;-0.80;99.90;;;;;;5079909;28;20157;-91
2022/11/18 04:16:05;;;;;;;2.37;2.17;;;-0.80;99.90;;;;;;5079663;28;20154;-92
2022/11/18 04:18:31;;;;;;;2.33;2.23;;;;;;;;;;5079101;28;20191;-90
2022/11/18 04:20:57;;;;;;;2.23;2.13;;;;;;;;;;5062194;28;20167;-90
2022/11/18 04:23:23;;;;;;;3.90;2.40;;;;;;;;;;5079029;28;20166;-88
2022/11/18 04:25:48;;;;;;;5.27;2.90;;;-0.80;99.90;;;;;;5078710;28;20170;-91
2022/11/18 04:28:14;;;;;;;3.47;2.50;;;-2.20;99.90;;;;;;5023967;28;20568;-89
2022/11/18 04:30:40;;;;;;;4.83;2.77;;;-1.00;99.90;;;;;;5022391;28;20241;-90
2022/11/18 04:33:05;;;;;;;2.83;2.17;;;-0.20;99.90;;;;;;5038038;28;20654;-90
2022/11/18 04:35:31;;;;;;;2.80;2.60;;;;;;;;;;5038411;28;20180;-89
2022/11/18 04:37:57;;;;;;;1.30;1.30;;;-0.90;99.90;;;;;;5055000;28;20176;-91
2022/11/18 04:40:22;;;;;;;4.90;2.90;;;-1.40;99.90;;;;;;5054813;28;20202;-90
2022/11/18 04:42:48;;;;;;;2.13;2.03;;;;;;;;;;5022370;28;20287;-90
2022/11/18 04:45:14;;;;;;;2.73;2.53;;;-1.00;99.90;;;;;;5055020;28;20186;-89
2022/11/18 04:47:40;;;;;;;4.13;2.63;;;;;;;;;;5022528;28;20212;-92
2022/11/18 04:50:06;;;;;;;3.20;3.00;;;;;;;;;;5038287;28;20214;-92
2022/11/18 04:52:32;;;;;;;1.87;1.77;;;-1.00;99.90;;;;;;5055893;28;20220;-89
2022/11/18 04:54:57;;;;;;;3.10;2.90;;;-1.00;99.90;;;;;;5022631;28;20176;-90
2022/11/18 04:57:23;;;;;;;3.10;2.83;;;-1.00;99.90;;;;;;5054634;28;20194;-90
2022/11/18 04:59:49;;;;;;;1.90;1.80;;;;;;;;;;5053776;28;20267;-91
2022/11/18 05:02:14;;;;;;;7.17;2.53;;;-1.10;99.90;;;;;;5054625;28;20186;-92
2022/11/18 05:04:40;;;;;;;4.20;3.13;;;;;;;;;;5025916;28;20620;-91
2022/11/18 05:07:06;;;;;;;6.33;2.77;;;-1.00;99.90;;;;;;5036943;28;20295;-93
2022/11/18 05:09:34;;;;;;;5.33;2.10;;;0.30;99.90;;;;;;5053630;28;20188;-93
2022/11/18 05:14:46;;;;;;;11.37;2.83;;;;;;;;;;5055440;28;20179;-89
2022/11/18 05:17:12;;;;;;;11.57;2.57;;;;;;;;;;5054387;28;20181;-90
2022/11/18 05:19:40;;;;;;;3.17;2.87;;;-1.10;99.90;;;;;;5037791;28;20187;-92
2022/11/18 05:22:07;;;;;;;3.83;3.00;;;;;;;;;;5061557;28;20189;-93
2022/11/18 05:24:33;;;;;;;2.80;2.53;;;;;;;;;;5057225;28;20193;-94
2022/11/18 05:26:59;;;;;;;2.63;2.43;;;;;;;;;;5055219;28;20183;-94
2022/11/18 05:29:28;;;;;;;3.13;1.90;;;;;;;;;;5055577;28;20638;-93
2022/11/18 05:31:54;;;;;;;7.07;4.15;;;;;;;;;;5053200;28;20449;-91
2022/11/18 05:34:20;;;;;;;5.03;2.60;;;;;;;;;;5053899;28;20183;-94
2022/11/18 05:36:46;;;;;;;3.20;2.90;;;;;;;;;;5053059;28;20192;-92
2022/11/18 05:39:12;;;;;;;12.40;2.87;;;;;;;;;;5060203;28;20187;-93
2022/11/18 05:44:22;;;;;;;4.67;3.27;;;-1.00;99.90;;;;;;5071175;28;20252;-88
2022/11/18 05:46:48;;;;;;;3.97;2.33;;;;;;;;;;5056318;28;20628;-93
2022/11/18 05:49:14;;;;;;;2.33;2.13;;;-1.00;99.90;;;;;;5056113;28;20196;-92
2022/11/18 05:51:40;;;;;;;2.00;1.90;;;;;;;;;;5055768;28;20290;-92
2022/11/18 05:54:11;;;;;;;2.87;2.67;;;-1.00;99.90;;;;;;5072423;28;20636;-90
2022/11/18 05:56:39;;;;;;;4.17;2.60;;;-1.00;99.90;;;;;;5071768;28;20287;-91
2022/11/18 05:59:05;;;;;;;2.50;2.00;;;-1.10;99.90;;;;;;5072066;28;20262;-92
2022/11/18 06:01:31;;;;;;;4.07;2.67;;;;;;;;;;5072768;28;20279;-91
2022/11/18 06:03:58;;;;;;;4.07;2.80;;;-1.00;99.90;;;;;;5072440;28;20269;-92
2022/11/18 06:06:25;;;;;;;1.90;1.70;;;;;;;;;;5056265;28;20242;-93
2022/11/18 06:08:57;;;;;;;4.53;2.43;;;-1.00;99.90;;;;;;5073066;28;20181;-93
2022/11/18 06:11:23;;;;;;;3.40;2.30;;;;;;;;;;5073286;28;20214;-91
2022/11/18 06:14:28;;;;;;;3.50;2.30;;;-1.00;99.90;;;;;;5057949;28;20191;-93
2022/11/18 06:16:57;;;;;;;4.33;3.23;;;-1.00;99.90;;;;;;4999461;28;20189;-93
2022/11/18 06:19:23;;;;;;;5.07;2.07;;;;;;;;;;5065253;28;20187;-93
2022/11/18 06:21:49;;;;;;;4.20;3.00;;;;;;;;;;5075207;28;20623;-92
2022/11/18 06:24:16;;;;;;;5.63;3.43;;;-1.00;99.90;;;;;;5070341;28;21188;-92
2022/11/18 06:26:43;;;;;;;5.20;2.13;;;-1.00;99.90;;;;;;5034569;28;20281;-95
2022/11/18 06:29:12;;;;;;;8.00;2.57;;;-1.00;99.90;;;;;;5054936;28;20181;-94
2022/11/18 06:31:38;;;;;;;6.37;2.80;;;;;;;;;;5051170;28;20206;-94
2022/11/18 06:34:03;;;;;;;7.43;3.40;;;-1.00;99.90;;;;;;5051003;28;20284;-92
2022/11/18 06:36:29;;;;;;;7.00;4.50;;;;;;;;;;5035250;28;20194;-93
2022/11/18 06:38:55;;;;;;;7.20;4.93;;;-1.00;99.90;;;;;;5051578;28;20675;-92
2022/11/18 06:41:20;;;;;;;8.13;5.93;;;-1.20;99.90;;;;;;5035232;28;20194;-94
2022/11/18 06:43:47;;;;;;;11.07;5.50;;;-1.10;99.90;;;;;;5034780;28;20280;-94
2022/11/18 06:49:00;;;;;;;8.37;4.33;;;-1.00;99.90;;;;;;5050010;28;20195;-94
2022/11/18 06:51:27;;;;;;;9.33;6.07;;;-1.00;99.90;;;;;;5037999;28;20234;-92
2022/11/18 06:53:53;;;;;;;8.67;3.90;;;;;;;;;;5052277;28;20189;-94
2022/11/18 06:56:20;;;;;;;10.97;5.67;;;-0.90;99.90;;;;;;5052385;28;20180;-93
2022/11/18 06:58:46;;;;;;;3.43;2.87;;;;;;;;;;5052818;28;20193;-91
2022/11/18 07:01:15;;;;;;;2.83;2.50;;;-1.00;99.90;;;;;;5033605;28;20250;-93
2022/11/18 07:03:42;;;;;;;3.23;2.97;;;2.30;99.90;;;;;;5050205;28;20222;-93
2022/11/18 07:06:08;;;;;;;3.57;2.80;;;1.40;99.90;;;;;;5050685;28;20192;-93
2022/11/18 07:08:35;;;;;;;4.30;2.17;;;1.20;99.90;;;;;;5052781;28;20638;-93
2022/11/18 07:11:02;;;;;;;2.87;2.70;;;1.90;99.90;;;;;;5037449;28;20594;-93
2022/11/18 07:13:27;;;;;;;3.17;2.03;;;-1.10;99.90;;;;;;5054162;28;20276;-92
2022/11/18 07:15:53;;;;;;;5.57;2.67;;;0.40;99.90;;;;;;5029345;28;20267;-90
2022/11/18 07:18:18;;;;;;;3.30;2.80;;;-0.90;99.90;;;;;;5053601;28;20267;-92
2022/11/18 07:20:44;;;;;;;4.23;3.37;;;-0.90;99.90;;;;;;5055433;28;20188;-95
2022/11/18 07:23:09;;;;;;;3.20;2.80;;;2.00;99.90;;;;;;5049936;28;20607;-94
2022/11/18 07:25:35;;;;;;;3.73;2.80;;;1.00;99.90;;;;;;5051444;28;20176;-92
2022/11/18 07:28:01;;;;;;;2.57;1.63;;;;;;;;;;5055067;28;20281;-93
2022/11/18 07:30:26;;;;;;;6.63;2.87;;;-0.80;99.90;;;;;;5053220;28;20219;-91
2022/11/18 07:32:52;;;;;;;4.10;2.43;;;;;;;;;;5054049;28;20210;-94
2022/11/18 07:35:18;;;;;;;9.00;4.33;;;-0.80;99.90;;;;;;5053510;28;20577;-93
2022/11/18 07:37:44;;;;;;;6.50;3.90;;;;;;;;;;5056962;28;20252;-92
2022/11/18 07:40:10;;;;;;;8.40;4.87;;;-0.80;99.90;;;;;;5056238;28;20191;-92
2022/11/18 07:42:41;;;;;;;20.83;9.80;;;-0.80;99.90;;;;;;5038675;28;20186;-92
2022/11/18 07:45:11;;;;;;;12.30;5.77;;;3.10;99.90;;;;;;5071743;28;20181;-92
2022/11/18 07:47:37;;;;;;;5.57;3.50;;;;;;;;;;5076464;28;20182;-91
2022/11/18 07:50:04;;;;;;;6.63;3.50;;;-0.50;99.90;;;;;;5077695;28;20211;-92
2022/11/18 07:52:30;;;;;;;4.17;3.33;;;;;;;;;;5058623;28;20212;-91
2022/11/18 07:54:56;;;;;;;2.33;2.20;;;;;;;;;;5056085;28;20635;-91
2022/11/18 07:57:21;;;;;;;4.07;3.17;;;-0.80;99.90;;;;;;5055606;28;20182;-93
2022/11/18 07:59:47;;;;;;;9.90;3.10;;;-0.70;99.90;;;;;;5041063;28;20731;-94
2022/11/18 08:02:13;;;;;;;10.57;5.10;;;-0.70;99.90;;;;;;5058611;28;20184;-94
2022/11/18 08:04:38;;;;;;;3.10;2.23;;;-0.80;99.90;;;;;;5039829;28;20207;-95
2022/11/18 08:07:04;;;;;;;7.43;4.27;;;0.10;99.90;;;;;;5057867;28;20180;-95
2022/11/18 08:09:29;;;;;;;5.80;2.90;;;-0.80;99.90;;;;;;5059153;28;20189;-96
2022/11/18 08:11:55;;;;;;;2.70;2.23;;;;;;;;;;5060243;28;20681;-96
2022/11/18 08:14:23;;;;;;;4.40;3.57;;;-0.70;99.90;;;;;;5059418;28;20210;-88
2022/11/18 08:16:49;;;;;;;5.47;3.37;;;;;;;;;;5058362;28;20628;-94
2022/11/18 08:19:15;;;;;;;4.00;2.77;;;-0.70;99.90;;;;;;5056950;28;20191;-94
2022/11/18 08:21:41;;;;;;;5.70;3.73;;;1.50;99.90;;;;;;5059041;28;20180;-96
2022/11/18 08:24:08;;;;;;;3.97;2.93;;;-0.70;99.90;;;;;;5058784;28;20210;-95
2022/11/18 08:26:34;;;;;;;2.50;2.30;;;;;;;;;;5026173;23;20322;-94
2022/11/18 08:29:00;;;;;;;8.00;4.90;;;-0.70;99.90;;;;;;4984991;28;20314;-95
2022/11/18 08:31:28;;;;;;;2.07;1.90;;;-0.70;99.90;;;;;;4983678;28;20247;-96
2022/11/18 08:33:55;;;;;;;4.97;2.70;;;-0.70;99.90;;;;;;4983557;28;20214;-96
2022/11/18 08:36:24;;;;;;;3.73;3.43;;;-0.70;99.90;;;;;;4984816;28;20611;-96
2022/11/18 08:38:49;;;;;;;10.80;6.57;;;-0.60;99.90;;;;;;4988359;28;20268;-95
2022/11/18 08:41:36;;;;;;;8.27;4.93;;;-0.70;99.90;;;;;;4968193;28;20194;-95
2022/11/18 08:44:03;;;;;;;6.70;3.40;;;-0.60;99.90;;;;;;4985152;28;20646;-96
2022/11/18 08:46:29;;;;;;;8.33;5.60;;;-0.60;99.90;;;;;;4986887;28;20165;-94
2022/11/18 08:48:55;;;;;;;9.30;5.00;;;-0.60;99.90;;;;;;4978362;28;20215;-94
2022/11/18 08:51:20;;;;;;;4.87;3.13;;;-0.50;99.90;;;;;;4981973;28;20708;-94
2022/11/18 08:53:46;;;;;;;6.87;3.30;;;;;;;;;;4979683;28;20546;-96
2022/11/18 08:56:15;;;;;;;7.43;4.90;;;-0.50;99.90;;;;;;4980634;28;20220;-95
2022/11/18 08:58:41;;;;;;;3.40;2.60;;;-0.60;99.90;;;;;;4977852;28;20277;-94
2022/11/18 09:01:07;;;;;;;3.90;3.50;;;-0.30;99.90;;;;;;4962840;28;20262;-95
2022/11/18 09:03:33;;;;;;;3.83;2.37;;;1.70;99.90;;;;;;4964072;28;20186;-95
2022/11/18 09:06:20;;;;;;;2.80;2.60;;;-0.60;99.90;;;;;;4969270;28;20254;-96
2022/11/18 09:08:46;;;;;;;3.37;2.00;;;-0.60;99.90;;;;;;4984871;28;20193;-95
2022/11/18 09:11:14;;;;;;;3.67;3.00;;;2.30;99.90;;;;;;4966910;28;20281;-96
2022/11/18 09:13:40;;;;;;;4.70;2.07;;;1.10;99.90;;;;;;4987601;28;20185;-96
2022/11/18 09:16:07;;;;;;;4.77;3.17;;;-0.70;99.90;;;;;;4981617;28;20204;-94
2022/11/18 09:18:33;;;;;;;2.17;1.97;;;-0.60;99.90;;;;;;4979753;28;20606;-96
2022/11/18 09:21:01;;;;;;;6.87;3.37;;;-0.60;99.90;;;;;;4981739;28;20187;-94
2022/11/18 09:23:27;;;;;;;9.70;4.30;;;;;;;;;;4985215;28;20310;-96
2022/11/18 09:25:58;;;;;;;2.90;2.60;;;-0.60;99.90;;;;;;4983724;28;20260;-96
2022/11/18 09:28:24;;;;;;;5.33;3.27;;;;;;;;;;4970560;28;20197;-96
2022/11/18 09:30:50;;;;;;;12.83;2.23;;;-0.60;99.90;;;;;;4983429;28;20309;-93
2022/11/18 09:33:15;;;;;;;5.80;3.83;;;-0.60;99.90;;;;;;4988779;28;20178;-95
2022/11/18 09:35:44;;;;;;;12.43;8.87;;;-0.60;99.90;;;;;;4973932;28;20195;-95
2022/11/18 09:38:10;;;;;;;9.40;5.57;;;-0.40;99.90;;;;;;4985500;28;20173;-96
2022/11/18 09:41:09;;;;;;;2.97;2.77;;;-0.60;99.90;;;;;;4989214;28;20193;-95
2022/11/18 10:40:59;;;;;;;9.97;4.07;;;-0.40;99.90;;;;;;5147225;23;20216;-87
2022/11/18 10:43:52;;;;;;;6.27;4.27;;;-0.50;99.90;;;;;;5021799;28;20136;-87
2022/11/18 10:46:37;;;;;;;4.50;3.00;;;-0.50;99.90;;;;;;5022727;28;20206;-87
2022/11/18 10:49:16;;;;;;;3.57;2.63;;;-0.50;99.90;;;;;;5022873;28;20166;-88
2022/11/18 10:52:02;;;;;;;3.30;2.87;;;-0.50;99.90;;;;;;5022779;28;20176;-87
2022/11/18 10:54:32;;;;;;;4.43;3.80;;;;;;;;;;5023015;28;20142;-87
2022/11/18 10:57:09;;;;;;;3.17;2.97;;;-0.50;99.90;;;;;;5022729;28;20170;-88
2022/11/18 10:59:56;;;;;;;5.00;3.63;;;-0.50;99.90;;;;;;5023019;28;20157;-88
2022/11/18 11:02:30;;;;;;;6.93;3.93;;;-0.40;99.90;;;;;;5023331;28;20138;-88
2022/11/18 11:11:19;;;;;;;5.40;4.60;;;-0.40;99.90;;;;;;5674165;23;21230;31
2022/11/18 11:16:26;;;;;;;2.97;2.73;;;-0.50;99.90;;;;;;5365980;23;20271;-96
2022/11/18 11:18:57;;;;;;;4.20;3.70;;;-0.50;99.90;;;;;;4957422;29;20163;-96
2022/11/18 11:21:29;;;;;;;2.17;2.07;;;-0.50;99.90;;;;;;4957450;28;20185;-96
2022/11/18 11:40:00;;;;;;;4.73;3.53;;;-0.40;99.90;;;;;;4941174;29;20696;-91
2022/11/18 11:42:45;;;;;;;6.47;4.00;;;-0.50;99.90;;;;;;4908217;29;20196;-92
2022/11/18 11:45:43;;;;;;;9.13;5.30;;;-0.60;99.90;;;;;;4940454;29;20173;-90
2022/11/18 11:48:35;;;;;;;4.07;3.60;;;-0.60;99.90;;;;;;4936172;28;20190;-95
2022/11/18 11:51:21;;;;;;;21.90;5.53;;;-0.50;99.90;;;;;;4953375;28;20193;-92
2022/11/18 11:54:11;;;;;;;14.90;7.83;;;-2.50;99.90;;;;;;4960390;28;20187;-89
2022/11/18 11:56:59;;;;;;;10.37;7.03;;;-0.50;99.90;;;;;;5066799;23;20198;-91
2022/11/18 12:02:30;;;;;;;5.13;4.07;;;-0.60;99.90;;;;;;5115337;23;20244;-88
2022/11/18 12:05:06;;;;;;;11.13;5.77;;;-0.60;99.90;;;;;;4954184;29;20653;-91
2022/11/18 12:49:23;;;;;;;5.83;4.47;;;-0.30;99.90;;;;;;5870040;23;21099;-90
2022/11/18 12:51:53;;;;;;;12.37;5.53;;;-0.20;99.90;;;;;;5317489;23;20250;-96
2022/11/18 13:09:55;;;;;;;20.17;7.87;;;-0.30;99.90;;;;;;4934069;27;20252;-92
2022/11/18 13:12:25;;;;;;;14.80;7.20;;;-0.30;99.90;;;;;;4929784;29;20184;-93
2022/11/18 13:26:35;;;;;;;19.73;10.13;;;-0.40;99.90;;;;;;5457476;23;20273;-94
2022/11/18 13:38:07;;;;;;;6.03;4.90;;;-0.40;99.90;;;;;;5206188;23;20265;31
2022/11/18 13:41:13;;;;;;;;;;;;;;;;;;;;;
2022/11/18 13:51:32;;;;;;;15.63;8.10;;;;;;;;;;5875872;23;21439;-92
2022/11/18 13:59:21;;;;;;;9.07;5.17;;;-0.40;99.90;;;;;;5734889;23;21521;31
2022/11/18 14:02:02;;;;;;;4.73;4.23;;;-0.60;99.90;;;;;;4948738;23;20307;-92
2022/11/18 14:04:31;;;;;;;3.87;3.57;;;-0.60;99.90;;;;;;5159610;23;20240;-93
2022/11/18 14:07:39;;;;;;;7.73;5.53;;;-0.60;99.90;;;;;;5239732;23;20318;-93
2022/11/18 14:10:14;;;;;;;27.53;6.83;;;-0.50;99.90;;;;;;5161098;23;20250;-92
2022/11/18 14:12:40;;;;;;;8.57;4.00;;;;;;;;;;4954193;29;20210;-95
2022/11/18 14:15:31;;;;;;;13.67;5.90;;;-0.50;99.90;;;;;;4953752;29;20209;-94
2022/11/18 14:20:31;;;;;;;7.23;6.47;;;-0.50;99.90;;;;;;5170631;23;20240;-94
2022/11/18 14:22:59;;;;;;;7.23;5.60;;;0.50;99.90;;;;;;5183774;23;20314;-94
2022/11/18 14:25:29;;;;;;;10.40;6.67;;;0.80;99.90;;;;;;4936937;29;20192;-91
2022/11/18 14:30:29;;;;;;;7.73;6.87;;;-0.40;99.90;;;;;;4999471;23;20269;-92
2022/11/18 14:51:14;;;;;;;11.83;7.27;;;;;;;;;;5289038;23;20478;-91
2022/11/18 14:56:36;;;;;;;14.87;5.77;;;-0.50;99.90;;;;;;5511555;23;20219;-94
2022/11/18 14:59:15;;;;;;;12.17;7.97;;;-0.50;99.90;;;;;;4959551;28;20237;-96
2022/11/18 15:01:42;;;;;;;14.60;7.80;;;;;;;;;;4942985;28;20191;-96
2022/11/18 15:04:10;;;;;;;9.80;6.10;;;-0.60;99.90;;;;;;4956540;29;20193;-96
2022/11/18 15:11:46;;;;;;;8.27;5.23;;;;;;;;;;5156311;23;20225;-96
2022/11/18 15:17:10;;;;;;;8.67;4.97;;;;;;;;;;5330452;23;20272;-95
2022/11/18 15:22:35;;;;;;;12.43;6.87;;;-0.60;99.90;;;;;;5405128;23;20259;31
2022/11/18 15:30:03;;;;;;;11.97;6.10;;;;;;;;;;5235526;23;20337;-89
2022/11/18 15:32:36;;;;;;;16.60;6.63;;;-0.60;99.90;;;;;;4940334;29;20314;-94
2022/11/18 15:35:13;;;;;;;8.40;6.07;;;-0.60;99.90;;;;;;5047471;23;20234;-94
2022/11/18 15:37:40;;;;;;;8.93;5.73;;;;;;;;;;4952937;29;20201;-96
2022/11/18 15:40:06;;;;;;;7.47;6.30;;;;;;;;;;4950297;29;20201;-92
2022/11/18 15:42:32;;;;;;;14.47;3.23;;;;;;;;;;4949690;29;20196;-93
2022/11/18 15:44:58;;;;;;;6.33;4.90;;;-0.60;99.90;;;;;;5343981;23;20243;-92
2022/11/18 15:47:24;;;;;;;11.03;6.37;;;-0.10;99.90;;;;;;4958930;29;20189;-94
2022/11/18 15:49:49;;;;;;;5.50;4.63;;;-0.60;99.90;;;;;;4945017;29;20674;-93
2022/11/18 15:52:15;;;;;;;11.13;5.27;;;-0.70;99.90;;;;;;4938331;29;20196;-95
2022/11/18 15:54:41;;;;;;;10.80;6.00;;;-0.60;99.90;;;;;;4923073;29;20182;-92
2022/11/18 15:57:07;;;;;;;22.97;6.83;;;-0.60;99.90;;;;;;4928096;29;20193;-91
2022/11/18 15:59:32;;;;;;;11.80;8.37;;;-0.60;99.90;;;;;;4921966;29;20202;-92
2022/11/18 16:01:58;;;;;;;4.80;4.40;;;1.10;99.90;;;;;;4924188;29;20455;-91
2022/11/18 16:04:24;;;;;;;6.13;5.33;;;-0.60;99.90;;;;;;4943720;29;20199;-92
2022/11/18 16:06:49;;;;;;;12.87;6.87;;;1.10;99.90;;;;;;4934651;29;20632;-90
2022/11/18 16:09:16;;;;;;;8.83;5.37;;;-0.60;99.90;;;;;;4938282;29;20267;-89
2022/11/18 16:14:26;;;;;;;8.07;6.10;;;-0.60;99.90;;;;;;4937237;29;20282;-93
2022/11/18 16:16:54;;;;;;;16.00;6.87;;;1.40;99.90;;;;;;4946304;29;20197;-93
2022/11/18 16:19:23;;;;;;;5.93;4.73;;;2.70;99.90;;;;;;4933407;29;20237;-93
2022/11/18 16:21:50;;;;;;;8.63;5.90;;;-0.70;99.90;;;;;;4946963;29;20226;-94
2022/11/18 16:24:19;;;;;;;7.20;5.47;;;-0.80;99.90;;;;;;4945289;28;20195;-94
2022/11/18 16:26:45;;;;;;;6.57;5.77;;;-0.60;99.90;;;;;;4951269;28;20184;-95
2022/11/18 16:29:12;;;;;;;16.73;7.07;;;-0.60;99.90;;;;;;4953628;28;20275;-92
2022/11/18 16:31:50;;;;;;;;;;;;;;;;;;;;;
2022/11/18 16:37:00;;;;;;;13.13;5.47;;;-0.50;99.90;;;;;;5088524;23;20247;-94
2022/11/18 16:39:27;;;;;;;11.37;7.37;;;-0.50;99.90;;;;;;5673954;23;20194;-92
2022/11/18 16:42:10;;;;;;;18.27;8.87;;;-0.50;99.90;;;;;;5254556;23;20237;-96
2022/11/18 16:49:48;;;;;;;11.00;5.83;;;;;;;;;;5724600;23;20227;-91
2022/11/18 16:56:39;;;;;;;13.77;6.87;;;-0.60;99.90;;;;;;4937350;29;20152;-92
2022/11/18 16:59:14;;;;;;;13.50;5.87;;;-0.60;99.90;;;;;;4935580;29;20149;-89
2022/11/18 17:02:04;;;;;;;;;;;;;;;;;;;;;
2022/11/18 17:05:02;;;;;;;;;;;;;;;;;;;;;
2022/11/18 17:07:46;;;;;;;17.80;9.20;;;-0.60;99.90;;;;;;4931449;29;20196;-89
2022/11/18 17:10:35;;;;;;;18.53;8.67;;;-0.60;99.90;;;;;;4937308;29;20168;-89
2022/11/18 17:13:21;;;;;;;19.90;10.20;;;-0.60;99.90;;;;;;4921143;29;20156;-90
2022/11/18 17:18:36;;;;;;;7.83;5.47;;;;;;;;;;5460993;23;20261;-91
2022/11/18 17:21:28;;;;;;;;;;;;;;;;;;;;;
2022/11/18 17:26:39;;;;;;;19.60;9.33;;;;;;;;;;5192031;23;21362;-94
2022/11/18 17:29:05;;;;;;;12.03;9.30;;;;;;;;;;4993982;23;20213;-91
2022/11/18 17:31:32;;;;;;;22.73;9.37;;;-0.60;99.90;;;;;;5225696;23;20258;-93
2022/11/18 17:34:01;;;;;;;15.97;8.87;;;;;;;;;;5275591;23;20281;-95
2022/11/18 17:39:14;;;;;;;9.83;7.53;;;-0.60;99.90;;;;;;4958542;23;20258;-92
2022/11/18 17:44:37;;;;;;;18.77;9.23;;;-0.60;99.90;;;;;;5396403;23;20293;-89
2022/11/18 17:47:03;;;;;;;22.27;10.90;;;;;;;;;;4969566;23;20258;-89
2022/11/18 17:49:37;;;;;;;21.23;9.47;;;-0.70;99.90;;;;;;4982778;23;20229;-91
2022/11/18 17:52:04;;;;;;;24.50;8.50;;;;;;;;;;5160301;23;20246;-92
2022/11/18 17:54:30;;;;;;;19.73;8.63;;;;;;;;;;4942166;29;20182;-94